sensor_id;sensor_type;location;lat;lon;timestamp;temperature;humidity
54832;DHT22;40730;53.068;6.572;2023-03-31T00:00:26;9.90;99.90
54832;DHT22;40730;53.068;6.572;2023-03-31T00:02:52;10.00;99.90
54832;DHT22;40730;53.068;6.572;2023-03-31T00:05:23;10.10;99.90
54832;DHT22;40730;53.068;6.572;2023-03-31T00:07:56;10.10;99.90
54832;DHT22;40730;53.068;6.572;2023-03-31T00:10:29;10.20;99.90
54832;DHT22;40730;53.068;6.572;2023-03-31T00:12:56;10.20;99.90
54832;DHT22;40730;53.068;6.572;2023-03-31T00:15:22;10.30;99.90
54832;DHT22;40730;53.068;6.572;2023-03-31T00:17:48;10.20;99.90
54832;DHT22;40730;53.068;6.572;2023-03-31T00:20:13;10.20;99.90
54832;DHT22;40730;53.068;6.572;2023-03-31T00:22:40;10.20;99.90
54832;DHT22;40730;53.068;6.572;2023-03-31T00:25:14;10.20;99.90
54832;DHT22;40730;53.068;6.572;2023-03-31T00:27:41;10.10;99.90
54832;DHT22;40730;53.068;6.572;2023-03-31T00:30:09;10.20;99.90
54832;DHT22;40730;53.068;6.572;2023-03-31T00:32:35;10.20;99.90
54832;DHT22;40730;53.068;6.572;2023-03-31T00:35:01;10.20;99.90
54832;DHT22;40730;53.068;6.572;2023-03-31T00:37:28;10.20;99.90
54832;DHT22;40730;53.068;6.572;2023-03-31T00:39:54;10.20;99.90
54832;DHT22;40730;53.068;6.572;2023-03-31T00:42:20;10.20;99.90
54832;DHT22;40730;53.068;6.572;2023-03-31T00:47:33;10.20;99.90
54832;DHT22;40730;53.068;6.572;2023-03-31T00:49:59;10.20;99.90
54832;DHT22;40730;53.068;6.572;2023-03-31T00:52:33;10.20;99.90
54832;DHT22;40730;53.068;6.572;2023-03-31T00:55:13;10.10;99.90
54832;DHT22;40730;53.068;6.572;2023-03-31T00:57:42;10.10;99.90
54832;DHT22;40730;53.068;6.572;2023-03-31T01:00:12;10.10;99.90
54832;DHT22;40730;53.068;6.572;2023-03-31T01:02:44;10.00;99.90
54832;DHT22;40730;53.068;6.572;2023-03-31T01:05:44;9.90;99.90
54832;DHT22;40730;53.068;6.572;2023-03-31T01:08:12;9.90;99.90
54832;DHT22;40730;53.068;6.572;2023-03-31T01:10:42;9.80;99.90
54832;DHT22;40730;53.068;6.572;2023-03-31T01:13:10;9.70;99.90
54832;DHT22;40730;53.068;6.572;2023-03-31T01:15:37;9.70;99.90
54832;DHT22;40730;53.068;6.572;2023-03-31T01:18:04;9.60;99.90
54832;DHT22;40730;53.068;6.572;2023-03-31T01:30:15;9.50;99.90
54832;DHT22;40730;53.068;6.572;2023-03-31T01:41:19;9.30;99.90
54832;DHT22;40730;53.068;6.572;2023-03-31T01:44:16;9.30;99.90
54832;DHT22;40730;53.068;6.572;2023-03-31T01:50:04;9.30;99.90
54832;DHT22;40730;53.068;6.572;2023-03-31T01:52:53;9.30;99.90
54832;DHT22;40730;53.068;6.572;2023-03-31T01:55:23;9.30;99.90
54832;DHT22;40730;53.068;6.572;2023-03-31T01:57:59;9.30;99.90
54832;DHT22;40730;53.068;6.572;2023-03-31T02:00:33;9.30;99.90
54832;DHT22;40730;53.068;6.572;2023-03-31T02:03:14;9.30;99.90
54832;DHT22;40730;53.068;6.572;2023-03-31T02:05:46;9.40;99.90
54832;DHT22;40730;53.068;6.572;2023-03-31T02:08:18;9.40;99.90
54832;DHT22;40730;53.068;6.572;2023-03-31T02:10:46;9.40;99.90
54832;DHT22;40730;53.068;6.572;2023-03-31T02:13:13;9.40;99.90
54832;DHT22;40730;53.068;6.572;2023-03-31T02:15:43;9.40;99.90
54832;DHT22;40730;53.068;6.572;2023-03-31T02:18:13;9.40;99.90
54832;DHT22;40730;53.068;6.572;2023-03-31T02:20:45;9.40;99.90
54832;DHT22;40730;53.068;6.572;2023-03-31T02:23:13;9.40;99.90
54832;DHT22;40730;53.068;6.572;2023-03-31T02:25:52;9.40;99.90
54832;DHT22;40730;53.068;6.572;2023-03-31T02:28:21;9.40;99.90
54832;DHT22;40730;53.068;6.572;2023-03-31T02:30:49;9.40;99.90
54832;DHT22;40730;53.068;6.572;2023-03-31T02:33:17;9.40;99.90
54832;DHT22;40730;53.068;6.572;2023-03-31T02:35:43;9.40;99.90
54832;DHT22;40730;53.068;6.572;2023-03-31T02:38:09;9.40;99.90
54832;DHT22;40730;53.068;6.572;2023-03-31T02:40:36;9.50;99.90
54832;DHT22;40730;53.068;6.572;2023-03-31T02:43:02;9.50;99.90
54832;DHT22;40730;53.068;6.572;2023-03-31T02:45:48;9.50;99.90
54832;DHT22;40730;53.068;6.572;2023-03-31T02:48:33;9.50;99.90
54832;DHT22;40730;53.068;6.572;2023-03-31T02:59:27;9.50;99.90
54832;DHT22;40730;53.068;6.572;2023-03-31T03:05:11;9.50;99.90
54832;DHT22;40730;53.068;6.572;2023-03-31T03:07:57;9.50;99.90
54832;DHT22;40730;53.068;6.572;2023-03-31T03:11:04;9.50;99.90
54832;DHT22;40730;53.068;6.572;2023-03-31T03:16:17;9.40;99.90
54832;DHT22;40730;53.068;6.572;2023-03-31T03:18:51;9.40;99.90
54832;DHT22;40730;53.068;6.572;2023-03-31T03:21:17;9.50;99.90
54832;DHT22;40730;53.068;6.572;2023-03-31T03:23:42;9.50;99.90
54832;DHT22;40730;53.068;6.572;2023-03-31T03:26:08;9.50;99.90
54832;DHT22;40730;53.068;6.572;2023-03-31T03:28:33;9.50;99.90
54832;DHT22;40730;53.068;6.572;2023-03-31T03:30:59;9.50;99.90
54832;DHT22;40730;53.068;6.572;2023-03-31T03:33:25;9.50;99.90
54832;DHT22;40730;53.068;6.572;2023-03-31T03:35:50;9.60;99.90
54832;DHT22;40730;53.068;6.572;2023-03-31T03:38:16;9.60;99.90
54832;DHT22;40730;53.068;6.572;2023-03-31T03:40:41;9.60;99.90
54832;DHT22;40730;53.068;6.572;2023-03-31T03:43:07;9.60;99.90
54832;DHT22;40730;53.068;6.572;2023-03-31T03:45:33;9.60;99.90
54832;DHT22;40730;53.068;6.572;2023-03-31T03:47:58;9.70;99.90
54832;DHT22;40730;53.068;6.572;2023-03-31T03:50:24;9.70;99.90
54832;DHT22;40730;53.068;6.572;2023-03-31T03:52:49;9.70;99.90
54832;DHT22;40730;53.068;6.572;2023-03-31T03:55:15;9.70;99.90
54832;DHT22;40730;53.068;6.572;2023-03-31T03:57:42;9.70;99.90
54832;DHT22;40730;53.068;6.572;2023-03-31T04:00:08;9.70;99.90
54832;DHT22;40730;53.068;6.572;2023-03-31T04:02:37;9.70;99.90
54832;DHT22;40730;53.068;6.572;2023-03-31T04:05:03;9.70;99.90
54832;DHT22;40730;53.068;6.572;2023-03-31T04:07:28;9.70;99.90
54832;DHT22;40730;53.068;6.572;2023-03-31T04:09:54;9.80;99.90
54832;DHT22;40730;53.068;6.572;2023-03-31T04:12:20;9.80;99.90
54832;DHT22;40730;53.068;6.572;2023-03-31T04:14:45;9.70;99.90
54832;DHT22;40730;53.068;6.572;2023-03-31T04:17:11;9.70;99.90
54832;DHT22;40730;53.068;6.572;2023-03-31T04:19:40;9.70;99.90
54832;DHT22;40730;53.068;6.572;2023-03-31T04:22:07;9.60;99.90
54832;DHT22;40730;53.068;6.572;2023-03-31T04:24:36;9.60;99.90
54832;DHT22;40730;53.068;6.572;2023-03-31T04:27:03;9.60;99.90
54832;DHT22;40730;53.068;6.572;2023-03-31T04:29:31;9.60;99.90
54832;DHT22;40730;53.068;6.572;2023-03-31T04:31:58;9.60;99.90
54832;DHT22;40730;53.068;6.572;2023-03-31T04:34:25;9.60;99.90
54832;DHT22;40730;53.068;6.572;2023-03-31T04:37:00;9.50;99.90
54832;DHT22;40730;53.068;6.572;2023-03-31T04:39:27;9.50;99.90
54832;DHT22;40730;53.068;6.572;2023-03-31T04:41:56;9.60;99.90
54832;DHT22;40730;53.068;6.572;2023-03-31T04:44:22;9.50;99.90
54832;DHT22;40730;53.068;6.572;2023-03-31T04:46:48;9.60;99.90
54832;DHT22;40730;53.068;6.572;2023-03-31T04:49:14;9.50;99.90
54832;DHT22;40730;53.068;6.572;2023-03-31T04:51:40;9.60;99.90
54832;DHT22;40730;53.068;6.572;2023-03-31T04:54:06;9.50;99.90
54832;DHT22;40730;53.068;6.572;2023-03-31T04:56:31;9.50;99.90
54832;DHT22;40730;53.068;6.572;2023-03-31T04:58:57;9.50;99.90
54832;DHT22;40730;53.068;6.572;2023-03-31T05:01:22;9.60;99.90
54832;DHT22;40730;53.068;6.572;2023-03-31T05:03:48;9.50;99.90
54832;DHT22;40730;53.068;6.572;2023-03-31T05:06:15;9.50;99.90
54832;DHT22;40730;53.068;6.572;2023-03-31T05:08:40;9.60;99.90
54832;DHT22;40730;53.068;6.572;2023-03-31T05:11:06;9.60;99.90
54832;DHT22;40730;53.068;6.572;2023-03-31T05:13:32;9.60;99.90
54832;DHT22;40730;53.068;6.572;2023-03-31T05:15:58;9.60;99.90
54832;DHT22;40730;53.068;6.572;2023-03-31T05:18:23;9.60;99.90
54832;DHT22;40730;53.068;6.572;2023-03-31T05:20:49;9.60;99.90
54832;DHT22;40730;53.068;6.572;2023-03-31T05:23:14;9.60;99.90
54832;DHT22;40730;53.068;6.572;2023-03-31T05:25:40;9.70;99.90
54832;DHT22;40730;53.068;6.572;2023-03-31T05:28:07;9.70;99.90
54832;DHT22;40730;53.068;6.572;2023-03-31T05:30:33;9.60;99.90
54832;DHT22;40730;53.068;6.572;2023-03-31T05:32:59;9.70;99.90
54832;DHT22;40730;53.068;6.572;2023-03-31T05:35:25;9.70;99.90
54832;DHT22;40730;53.068;6.572;2023-03-31T05:37:50;9.70;99.90
54832;DHT22;40730;53.068;6.572;2023-03-31T05:40:16;9.70;99.90
54832;DHT22;40730;53.068;6.572;2023-03-31T05:42:42;9.70;99.90
54832;DHT22;40730;53.068;6.572;2023-03-31T05:45:08;9.60;99.90
54832;DHT22;40730;53.068;6.572;2023-03-31T05:47:34;9.70;99.90
54832;DHT22;40730;53.068;6.572;2023-03-31T05:49:59;9.60;99.90
54832;DHT22;40730;53.068;6.572;2023-03-31T05:52:25;9.70;99.90
54832;DHT22;40730;53.068;6.572;2023-03-31T05:54:51;9.70;99.90
54832;DHT22;40730;53.068;6.572;2023-03-31T05:57:16;9.70;99.90
54832;DHT22;40730;53.068;6.572;2023-03-31T05:59:42;9.70;99.90
54832;DHT22;40730;53.068;6.572;2023-03-31T06:02:11;9.70;99.90
54832;DHT22;40730;53.068;6.572;2023-03-31T06:04:37;9.70;99.90
54832;DHT22;40730;53.068;6.572;2023-03-31T06:07:04;9.70;99.90
54832;DHT22;40730;53.068;6.572;2023-03-31T06:09:30;9.70;99.90
54832;DHT22;40730;53.068;6.572;2023-03-31T06:11:55;9.70;99.90
54832;DHT22;40730;53.068;6.572;2023-03-31T06:14:21;9.70;99.90
54832;DHT22;40730;53.068;6.572;2023-03-31T06:16:47;9.70;99.90
54832;DHT22;40730;53.068;6.572;2023-03-31T06:19:12;9.70;99.90
54832;DHT22;40730;53.068;6.572;2023-03-31T06:21:38;9.70;99.90
54832;DHT22;40730;53.068;6.572;2023-03-31T06:24:04;9.70;99.90
54832;DHT22;40730;53.068;6.572;2023-03-31T06:26:30;9.80;99.90
54832;DHT22;40730;53.068;6.572;2023-03-31T06:28:55;9.70;99.90
54832;DHT22;40730;53.068;6.572;2023-03-31T06:50:37;9.70;99.90
54832;DHT22;40730;53.068;6.572;2023-03-31T06:53:03;9.70;99.90
54832;DHT22;40730;53.068;6.572;2023-03-31T06:55:29;9.70;99.90
54832;DHT22;40730;53.068;6.572;2023-03-31T06:57:54;9.80;99.90
54832;DHT22;40730;53.068;6.572;2023-03-31T07:00:20;9.80;99.90
54832;DHT22;40730;53.068;6.572;2023-03-31T07:02:46;9.80;99.90
54832;DHT22;40730;53.068;6.572;2023-03-31T07:05:12;9.80;99.90
54832;DHT22;40730;53.068;6.572;2023-03-31T07:07:38;9.80;99.90
54832;DHT22;40730;53.068;6.572;2023-03-31T07:10:03;9.70;99.90
54832;DHT22;40730;53.068;6.572;2023-03-31T07:12:32;9.80;99.90
54832;DHT22;40730;53.068;6.572;2023-03-31T07:14:58;9.80;99.90
54832;DHT22;40730;53.068;6.572;2023-03-31T07:17:24;9.90;99.90
54832;DHT22;40730;53.068;6.572;2023-03-31T07:19:50;9.90;99.90
54832;DHT22;40730;53.068;6.572;2023-03-31T07:22:15;9.90;99.90
54832;DHT22;40730;53.068;6.572;2023-03-31T07:24:41;9.90;99.90
54832;DHT22;40730;53.068;6.572;2023-03-31T07:27:07;9.90;99.90
54832;DHT22;40730;53.068;6.572;2023-03-31T07:29:32;9.90;99.90
54832;DHT22;40730;53.068;6.572;2023-03-31T07:31:58;9.90;99.90
54832;DHT22;40730;53.068;6.572;2023-03-31T07:34:23;9.90;99.90
54832;DHT22;40730;53.068;6.572;2023-03-31T07:36:50;9.90;99.90
54832;DHT22;40730;53.068;6.572;2023-03-31T07:39:16;9.90;99.90
54832;DHT22;40730;53.068;6.572;2023-03-31T07:41:41;9.90;99.90
54832;DHT22;40730;53.068;6.572;2023-03-31T07:44:07;9.90;99.90
54832;DHT22;40730;53.068;6.572;2023-03-31T07:46:33;9.90;99.90
54832;DHT22;40730;53.068;6.572;2023-03-31T07:48:58;9.90;99.90
54832;DHT22;40730;53.068;6.572;2023-03-31T07:51:26;9.90;99.90
54832;DHT22;40730;53.068;6.572;2023-03-31T07:53:52;9.80;99.90
54832;DHT22;40730;53.068;6.572;2023-03-31T07:56:19;9.90;99.90
54832;DHT22;40730;53.068;6.572;2023-03-31T07:58:46;10.50;99.90
54832;DHT22;40730;53.068;6.572;2023-03-31T08:01:16;9.90;99.90
54832;DHT22;40730;53.068;6.572;2023-03-31T08:03:47;9.90;99.90
54832;DHT22;40730;53.068;6.572;2023-03-31T08:06:21;9.90;99.90
54832;DHT22;40730;53.068;6.572;2023-03-31T08:08:48;9.90;99.90
54832;DHT22;40730;53.068;6.572;2023-03-31T08:11:14;10.20;99.90
54832;DHT22;40730;53.068;6.572;2023-03-31T08:13:39;10.00;99.90
54832;DHT22;40730;53.068;6.572;2023-03-31T08:16:05;10.00;99.90
54832;DHT22;40730;53.068;6.572;2023-03-31T08:18:49;10.10;99.90
54832;DHT22;40730;53.068;6.572;2023-03-31T08:21:18;10.20;99.90
54832;DHT22;40730;53.068;6.572;2023-03-31T08:23:43;10.20;99.90
54832;DHT22;40730;53.068;6.572;2023-03-31T08:26:12;10.20;99.90
54832;DHT22;40730;53.068;6.572;2023-03-31T08:28:38;10.30;99.90
54832;DHT22;40730;53.068;6.572;2023-03-31T08:31:07;10.30;99.90
54832;DHT22;40730;53.068;6.572;2023-03-31T08:33:33;10.60;99.90
54832;DHT22;40730;53.068;6.572;2023-03-31T08:36:07;10.40;99.90
54832;DHT22;40730;53.068;6.572;2023-03-31T08:38:35;10.30;99.90
54832;DHT22;40730;53.068;6.572;2023-03-31T08:41:11;10.30;99.90
54832;DHT22;40730;53.068;6.572;2023-03-31T08:43:43;10.40;99.90
54832;DHT22;40730;53.068;6.572;2023-03-31T08:46:12;10.30;99.90
54832;DHT22;40730;53.068;6.572;2023-03-31T08:48:44;10.40;99.90
54832;DHT22;40730;53.068;6.572;2023-03-31T08:53:51;10.30;99.90
54832;DHT22;40730;53.068;6.572;2023-03-31T08:56:21;10.40;99.90
54832;DHT22;40730;53.068;6.572;2023-03-31T08:58:49;10.80;99.90
54832;DHT22;40730;53.068;6.572;2023-03-31T09:12:19;10.30;99.90
54832;DHT22;40730;53.068;6.572;2023-03-31T09:15:01;10.40;99.90
54832;DHT22;40730;53.068;6.572;2023-03-31T09:17:47;10.40;99.90
54832;DHT22;40730;53.068;6.572;2023-03-31T09:20:33;10.40;99.90
54832;DHT22;40730;53.068;6.572;2023-03-31T09:23:23;10.40;99.90
54832;DHT22;40730;53.068;6.572;2023-03-31T09:25:51;10.40;99.90
54832;DHT22;40730;53.068;6.572;2023-03-31T09:28:28;10.80;99.90
54832;DHT22;40730;53.068;6.572;2023-03-31T09:30:55;10.50;99.90
54832;DHT22;40730;53.068;6.572;2023-03-31T09:33:29;10.50;99.90
54832;DHT22;40730;53.068;6.572;2023-03-31T09:35:59;10.60;99.90
54832;DHT22;40730;53.068;6.572;2023-03-31T09:38:24;10.60;99.90
54832;DHT22;40730;53.068;6.572;2023-03-31T09:40:55;10.60;99.90
54832;DHT22;40730;53.068;6.572;2023-03-31T09:43:23;11.10;99.90
54832;DHT22;40730;53.068;6.572;2023-03-31T09:45:50;10.70;99.90
54832;DHT22;40730;53.068;6.572;2023-03-31T09:48:19;10.80;99.90
54832;DHT22;40730;53.068;6.572;2023-03-31T09:51:00;10.90;99.90
54832;DHT22;40730;53.068;6.572;2023-03-31T09:53:44;10.90;99.90
54832;DHT22;40730;53.068;6.572;2023-03-31T09:56:12;11.00;99.90
54832;DHT22;40730;53.068;6.572;2023-03-31T09:59:00;11.00;99.90
54832;DHT22;40730;53.068;6.572;2023-03-31T10:01:27;11.00;99.90
54832;DHT22;40730;53.068;6.572;2023-03-31T10:03:54;11.00;99.90
54832;DHT22;40730;53.068;6.572;2023-03-31T10:06:22;11.00;99.90
54832;DHT22;40730;53.068;6.572;2023-03-31T10:08:53;11.00;99.90
54832;DHT22;40730;53.068;6.572;2023-03-31T10:11:21;11.00;99.90
54832;DHT22;40730;53.068;6.572;2023-03-31T10:14:12;11.10;99.90
54832;DHT22;40730;53.068;6.572;2023-03-31T10:19:21;11.20;99.90
54832;DHT22;40730;53.068;6.572;2023-03-31T10:21:54;11.20;99.90
54832;DHT22;40730;53.068;6.572;2023-03-31T10:24:20;11.20;99.90
54832;DHT22;40730;53.068;6.572;2023-03-31T10:26:53;11.10;99.90
54832;DHT22;40730;53.068;6.572;2023-03-31T10:29:27;11.10;99.90
54832;DHT22;40730;53.068;6.572;2023-03-31T10:31:54;11.10;99.90
54832;DHT22;40730;53.068;6.572;2023-03-31T10:34:20;11.00;99.90
54832;DHT22;40730;53.068;6.572;2023-03-31T10:36:50;11.10;99.90
54832;DHT22;40730;53.068;6.572;2023-03-31T10:39:18;11.00;99.90
54832;DHT22;40730;53.068;6.572;2023-03-31T10:41:51;11.10;99.90
54832;DHT22;40730;53.068;6.572;2023-03-31T10:44:35;11.10;99.90
54832;DHT22;40730;53.068;6.572;2023-03-31T10:49:41;11.50;99.90
54832;DHT22;40730;53.068;6.572;2023-03-31T10:52:17;11.80;99.90
54832;DHT22;40730;53.068;6.572;2023-03-31T10:55:01;12.20;99.90
54832;DHT22;40730;53.068;6.572;2023-03-31T11:05:49;13.50;99.90
54832;DHT22;40730;53.068;6.572;2023-03-31T11:16:32;13.60;99.90
54832;DHT22;40730;53.068;6.572;2023-03-31T11:22:19;13.50;99.90
54832;DHT22;40730;53.068;6.572;2023-03-31T11:30:25;15.30;99.90
54832;DHT22;40730;53.068;6.572;2023-03-31T11:43:28;13.60;99.90
54832;DHT22;40730;53.068;6.572;2023-03-31T11:48:50;13.10;99.90
54832;DHT22;40730;53.068;6.572;2023-03-31T11:53:57;13.30;99.90
54832;DHT22;40730;53.068;6.572;2023-03-31T11:56:32;13.50;99.90
54832;DHT22;40730;53.068;6.572;2023-03-31T11:59:00;13.40;99.90
54832;DHT22;40730;53.068;6.572;2023-03-31T12:01:36;13.40;99.90
54832;DHT22;40730;53.068;6.572;2023-03-31T12:04:16;13.30;99.90
54832;DHT22;40730;53.068;6.572;2023-03-31T12:06:43;13.30;99.90
54832;DHT22;40730;53.068;6.572;2023-03-31T12:09:35;13.30;99.90
54832;DHT22;40730;53.068;6.572;2023-03-31T12:12:11;13.30;99.90
54832;DHT22;40730;53.068;6.572;2023-03-31T12:14:47;13.40;99.90
54832;DHT22;40730;53.068;6.572;2023-03-31T12:17:27;13.30;99.90
54832;DHT22;40730;53.068;6.572;2023-03-31T12:19:54;13.30;99.90
54832;DHT22;40730;53.068;6.572;2023-03-31T12:22:43;13.30;99.90
54832;DHT22;40730;53.068;6.572;2023-03-31T12:25:13;13.20;99.90
54832;DHT22;40730;53.068;6.572;2023-03-31T12:27:42;13.10;99.90
54832;DHT22;40730;53.068;6.572;2023-03-31T12:30:33;13.10;99.90
54832;DHT22;40730;53.068;6.572;2023-03-31T12:44:51;13.50;99.90
54832;DHT22;40730;53.068;6.572;2023-03-31T12:49:54;13.80;99.90
54832;DHT22;40730;53.068;6.572;2023-03-31T12:55:45;14.00;99.90
54832;DHT22;40730;53.068;6.572;2023-03-31T13:01:14;14.00;99.90
54832;DHT22;40730;53.068;6.572;2023-03-31T13:14:39;14.10;99.90
54832;DHT22;40730;53.068;6.572;2023-03-31T13:19:40;13.70;99.90
54832;DHT22;40730;53.068;6.572;2023-03-31T13:22:26;13.60;99.90
54832;DHT22;40730;53.068;6.572;2023-03-31T13:24:52;13.40;99.90
54832;DHT22;40730;53.068;6.572;2023-03-31T13:27:49;13.40;99.90
54832;DHT22;40730;53.068;6.572;2023-03-31T13:35:50;13.10;99.90
54832;DHT22;40730;53.068;6.572;2023-03-31T13:38:41;13.20;99.90
54832;DHT22;40730;53.068;6.572;2023-03-31T13:41:45;13.30;99.90
54832;DHT22;40730;53.068;6.572;2023-03-31T14:06:03;11.80;99.90
54832;DHT22;40730;53.068;6.572;2023-03-31T14:11:21;11.70;99.90
54832;DHT22;40730;53.068;6.572;2023-03-31T14:14:18;11.50;99.90
54832;DHT22;40730;53.068;6.572;2023-03-31T14:16:55;11.50;99.90
54832;DHT22;40730;53.068;6.572;2023-03-31T14:19:57;11.50;99.90
54832;DHT22;40730;53.068;6.572;2023-03-31T14:31:22;12.10;99.90
54832;DHT22;40730;53.068;6.572;2023-03-31T14:34:21;12.40;99.90
54832;DHT22;40730;53.068;6.572;2023-03-31T14:36:58;12.80;99.90
54832;DHT22;40730;53.068;6.572;2023-03-31T14:39:37;13.40;99.90
54832;DHT22;40730;53.068;6.572;2023-03-31T14:42:10;13.80;99.90
54832;DHT22;40730;53.068;6.572;2023-03-31T14:44:37;14.10;99.90
54832;DHT22;40730;53.068;6.572;2023-03-31T14:47:05;14.30;99.90
54832;DHT22;40730;53.068;6.572;2023-03-31T14:49:37;14.40;99.90
54832;DHT22;40730;53.068;6.572;2023-03-31T14:52:16;14.10;99.90
54832;DHT22;40730;53.068;6.572;2023-03-31T14:54:44;13.80;99.90
54832;DHT22;40730;53.068;6.572;2023-03-31T14:57:18;13.60;99.90
54832;DHT22;40730;53.068;6.572;2023-03-31T14:59:47;13.40;99.90
54832;DHT22;40730;53.068;6.572;2023-03-31T15:02:18;13.30;99.90
54832;DHT22;40730;53.068;6.572;2023-03-31T15:04:47;13.30;99.90
54832;DHT22;40730;53.068;6.572;2023-03-31T15:07:14;13.10;99.90
54832;DHT22;40730;53.068;6.572;2023-03-31T15:09:45;13.00;99.90
54832;DHT22;40730;53.068;6.572;2023-03-31T15:12:14;13.00;99.90
54832;DHT22;40730;53.068;6.572;2023-03-31T15:14:48;13.00;99.90
54832;DHT22;40730;53.068;6.572;2023-03-31T15:17:26;13.00;99.90
54832;DHT22;40730;53.068;6.572;2023-03-31T15:19:55;13.10;99.90
54832;DHT22;40730;53.068;6.572;2023-03-31T15:22:22;13.00;99.90
54832;DHT22;40730;53.068;6.572;2023-03-31T15:24:48;13.00;99.90
54832;DHT22;40730;53.068;6.572;2023-03-31T15:29:57;13.00;99.90
54832;DHT22;40730;53.068;6.572;2023-03-31T15:32:28;12.90;99.90
54832;DHT22;40730;53.068;6.572;2023-03-31T15:34:55;12.80;99.90
54832;DHT22;40730;53.068;6.572;2023-03-31T15:37:28;12.90;99.90
54832;DHT22;40730;53.068;6.572;2023-03-31T15:39:58;12.80;99.90
54832;DHT22;40730;53.068;6.572;2023-03-31T15:42:26;12.70;99.90
54832;DHT22;40730;53.068;6.572;2023-03-31T15:47:49;12.60;99.90
54832;DHT22;40730;53.068;6.572;2023-03-31T15:50:16;12.90;99.90
54832;DHT22;40730;53.068;6.572;2023-03-31T15:52:47;12.80;99.90
54832;DHT22;40730;53.068;6.572;2023-03-31T15:55:43;12.90;99.90
54832;DHT22;40730;53.068;6.572;2023-03-31T15:58:14;12.90;99.90
54832;DHT22;40730;53.068;6.572;2023-03-31T16:00:44;12.90;99.90
54832;DHT22;40730;53.068;6.572;2023-03-31T16:03:25;12.90;99.90
54832;DHT22;40730;53.068;6.572;2023-03-31T16:06:06;12.90;99.90
54832;DHT22;40730;53.068;6.572;2023-03-31T16:08:37;12.90;99.90
54832;DHT22;40730;53.068;6.572;2023-03-31T16:11:09;12.80;99.90
54832;DHT22;40730;53.068;6.572;2023-03-31T16:13:39;12.80;99.90
54832;DHT22;40730;53.068;6.572;2023-03-31T16:16:11;12.80;99.90
54832;DHT22;40730;53.068;6.572;2023-03-31T16:18:53;12.80;99.90
54832;DHT22;40730;53.068;6.572;2023-03-31T16:21:25;12.70;99.90
54832;DHT22;40730;53.068;6.572;2023-03-31T16:23:55;12.70;99.90
54832;DHT22;40730;53.068;6.572;2023-03-31T16:26:22;12.60;99.90
54832;DHT22;40730;53.068;6.572;2023-03-31T16:28:50;12.60;99.90
54832;DHT22;40730;53.068;6.572;2023-03-31T16:33:59;12.50;99.90
54832;DHT22;40730;53.068;6.572;2023-03-31T16:36:26;12.40;99.90
54832;DHT22;40730;53.068;6.572;2023-03-31T16:38:51;12.40;99.90
54832;DHT22;40730;53.068;6.572;2023-03-31T16:41:18;12.20;99.90
54832;DHT22;40730;53.068;6.572;2023-03-31T16:43:44;12.10;99.90
54832;DHT22;40730;53.068;6.572;2023-03-31T16:46:11;12.00;99.90
54832;DHT22;40730;53.068;6.572;2023-03-31T16:48:37;11.70;99.90
54832;DHT22;40730;53.068;6.572;2023-03-31T16:51:03;11.50;99.90
54832;DHT22;40730;53.068;6.572;2023-03-31T16:53:33;11.30;99.90
54832;DHT22;40730;53.068;6.572;2023-03-31T16:56:00;11.20;99.90
54832;DHT22;40730;53.068;6.572;2023-03-31T16:58:26;11.10;99.90
54832;DHT22;40730;53.068;6.572;2023-03-31T17:00:56;11.10;99.90
54832;DHT22;40730;53.068;6.572;2023-03-31T17:03:22;11.00;99.90
54832;DHT22;40730;53.068;6.572;2023-03-31T17:05:50;11.10;99.90
54832;DHT22;40730;53.068;6.572;2023-03-31T17:08:18;11.10;99.90
54832;DHT22;40730;53.068;6.572;2023-03-31T17:10:58;11.00;99.90
54832;DHT22;40730;53.068;6.572;2023-03-31T17:13:24;11.00;99.90
54832;DHT22;40730;53.068;6.572;2023-03-31T17:15:50;11.00;99.90
54832;DHT22;40730;53.068;6.572;2023-03-31T17:18:16;11.00;99.90
54832;DHT22;40730;53.068;6.572;2023-03-31T17:20:42;11.00;99.90
54832;DHT22;40730;53.068;6.572;2023-03-31T17:23:08;11.00;99.90
54832;DHT22;40730;53.068;6.572;2023-03-31T17:25:33;11.10;99.90
54832;DHT22;40730;53.068;6.572;2023-03-31T17:28:03;11.00;99.90
54832;DHT22;40730;53.068;6.572;2023-03-31T17:30:29;11.00;99.90
54832;DHT22;40730;53.068;6.572;2023-03-31T17:32:56;11.00;99.90
54832;DHT22;40730;53.068;6.572;2023-03-31T17:35:23;11.00;99.90
54832;DHT22;40730;53.068;6.572;2023-03-31T17:37:50;11.00;99.90
54832;DHT22;40730;53.068;6.572;2023-03-31T17:40:18;11.20;99.90
54832;DHT22;40730;53.068;6.572;2023-03-31T17:42:44;11.00;99.90
54832;DHT22;40730;53.068;6.572;2023-03-31T17:45:12;11.00;99.90
54832;DHT22;40730;53.068;6.572;2023-03-31T17:47:38;11.00;99.90
54832;DHT22;40730;53.068;6.572;2023-03-31T17:50:04;10.90;99.90
54832;DHT22;40730;53.068;6.572;2023-03-31T17:52:30;11.00;99.90
54832;DHT22;40730;53.068;6.572;2023-03-31T17:54:57;10.90;99.90
54832;DHT22;40730;53.068;6.572;2023-03-31T17:57:23;10.90;99.90
54832;DHT22;40730;53.068;6.572;2023-03-31T17:59:50;10.90;99.90
54832;DHT22;40730;53.068;6.572;2023-03-31T18:02:16;10.80;99.90
54832;DHT22;40730;53.068;6.572;2023-03-31T18:04:41;10.90;99.90
54832;DHT22;40730;53.068;6.572;2023-03-31T18:07:07;10.80;99.90
54832;DHT22;40730;53.068;6.572;2023-03-31T18:09:33;10.80;99.90
54832;DHT22;40730;53.068;6.572;2023-03-31T18:11:59;10.80;99.90
54832;DHT22;40730;53.068;6.572;2023-03-31T18:14:25;10.80;99.90
54832;DHT22;40730;53.068;6.572;2023-03-31T18:16:51;10.80;99.90
54832;DHT22;40730;53.068;6.572;2023-03-31T18:19:17;10.80;99.90
54832;DHT22;40730;53.068;6.572;2023-03-31T18:21:43;10.80;99.90
54832;DHT22;40730;53.068;6.572;2023-03-31T18:24:08;10.70;99.90
54832;DHT22;40730;53.068;6.572;2023-03-31T18:26:34;10.70;99.90
54832;DHT22;40730;53.068;6.572;2023-03-31T18:29:00;10.70;99.90
54832;DHT22;40730;53.068;6.572;2023-03-31T18:31:26;10.70;99.90
54832;DHT22;40730;53.068;6.572;2023-03-31T18:33:52;10.70;99.90
54832;DHT22;40730;53.068;6.572;2023-03-31T18:36:20;10.70;99.90
54832;DHT22;40730;53.068;6.572;2023-03-31T18:38:48;10.60;99.90
54832;DHT22;40730;53.068;6.572;2023-03-31T18:41:14;10.60;99.90
54832;DHT22;40730;53.068;6.572;2023-03-31T18:43:40;10.60;99.90
54832;DHT22;40730;53.068;6.572;2023-03-31T18:46:06;10.60;99.90
54832;DHT22;40730;53.068;6.572;2023-03-31T18:48:32;10.60;99.90
54832;DHT22;40730;53.068;6.572;2023-03-31T18:50:59;10.60;99.90
54832;DHT22;40730;53.068;6.572;2023-03-31T18:53:24;10.60;99.90
54832;DHT22;40730;53.068;6.572;2023-03-31T18:55:52;10.60;99.90
54832;DHT22;40730;53.068;6.572;2023-03-31T18:58:18;10.60;99.90
54832;DHT22;40730;53.068;6.572;2023-03-31T19:00:43;10.60;99.90
54832;DHT22;40730;53.068;6.572;2023-03-31T19:03:09;10.80;99.90
54832;DHT22;40730;53.068;6.572;2023-03-31T19:05:35;10.60;99.90
54832;DHT22;40730;53.068;6.572;2023-03-31T19:08:01;10.60;99.90
54832;DHT22;40730;53.068;6.572;2023-03-31T19:10:27;10.60;99.90
54832;DHT22;40730;53.068;6.572;2023-03-31T19:12:53;10.60;99.90